Terminal Aerodrome Forecast
Issued by NWS

Home | Current Version | Previous Version | Text Only | Print | Product List | Glossary On
Versions: 1 2 3 4 5 6 7 8 9 10 11 12 13
000
FTUS45 KABQ 260537
TAFTCC
TAF
KTCC 260537Z 2606/2706 07006KT P6SM SCT200
     FM261700 07008KT P6SM SCT200
     FM262000 11007KT P6SM SCT200
     FM270200 15006KT P6SM SCT200=

USA.gov is the U.S. government's official web portal to all federal, state and local government web resources and services.